Time;durP1;ratioP1;P1;durP2;ratioP2;P2;SDS_P1;SDS_P2;PMS_P1;PMS_P2;Temp;Humidity;BMP_temperature;BMP_pressure;BME280_temperature;BME280_humidity;BME280_pressure;Samples;Min_cycle;Max_cycle;Signal;HPM_P1;HPM_P2
2022/03/02 00:01:57;;;;;;;29.10;14.13;;;;;;;;;;4183076;28;20436;-86
2022/03/02 00:03:59;;;;;;;31.50;15.85;;;;;;;;;;4181627;28;20076;-86
2022/03/02 00:06:00;;;;;;;33.67;15.15;;;;;;;;;;4180905;28;20052;-87
2022/03/02 00:08:02;;;;;;;36.58;16.85;;;;;;;;;;4180917;28;20190;-86
2022/03/02 00:10:04;;;;;;;31.15;15.57;;;;;;;;;;4164403;28;20081;-86
2022/03/02 00:12:05;;;;;;;35.45;16.58;;;;;;;;;;4181253;28;20071;-86
2022/03/02 00:14:06;;;;;;;32.58;16.48;;;;;;;;;;4162939;28;20500;-86
2022/03/02 00:16:08;;;;;;;34.88;16.13;;;;;;;;;;4181868;28;20044;-86
2022/03/02 00:18:09;;;;;;;36.03;15.93;;;;;;;;;;4180763;28;20430;-86
2022/03/02 00:20:12;;;;;;;35.13;15.65;;;;;;;;;;4180930;28;20048;-86
2022/03/02 00:22:13;;;;;;;34.42;16.27;;;;;;;;;;4164099;28;20053;-86
2022/03/02 00:24:14;;;;;;;29.42;15.23;;;;;;;;;;4181586;28;20063;-86
2022/03/02 00:26:16;;;;;;;33.63;16.40;;;;;;;;;;4180373;28;20045;-86
2022/03/02 00:28:17;;;;;;;33.75;16.83;;;;;;;;;;4179974;28;20553;-87
2022/03/02 00:30:19;;;;;;;34.88;15.95;;;;;;;;;;4180812;28;20054;-87
2022/03/02 00:32:20;;;;;;;36.72;15.48;;;;;;;;;;4162635;28;20095;-87
2022/03/02 00:34:21;;;;;;;33.72;16.77;;;;;;;;;;4162990;28;20110;-86
2022/03/02 00:36:22;;;;;;;35.20;16.45;;;;;;;;;;4163953;28;20053;-86
2022/03/02 00:38:23;;;;;;;33.55;17.52;;;;;;;;;;4163677;28;20142;-87
2022/03/02 00:40:24;;;;;;;34.17;16.17;;;;;;;;;;4164749;28;20403;-87
2022/03/02 00:42:25;;;;;;;34.22;16.27;;;;;;;;;;4163589;28;20500;-86
2022/03/02 00:44:27;;;;;;;36.25;16.17;;;;;;;;;;4163628;28;20527;-86
2022/03/02 00:46:31;;;;;;;31.50;15.75;;;;;;;;;;4164199;28;20049;-86
2022/03/02 00:48:32;;;;;;;38.35;16.88;;;;;;;;;;4171472;28;20474;-86
2022/03/02 00:50:35;;;;;;;35.33;17.95;;;;;;;;;;4164290;28;20053;-86
2022/03/02 00:52:36;;;;;;;34.92;17.17;;;;;;;;;;4163765;28;20053;-87
2022/03/02 00:54:37;;;;;;;36.78;16.60;;;;;;;;;;4163500;28;20493;-86
2022/03/02 00:56:39;;;;;;;36.55;17.80;;;;;;;;;;4163571;28;20045;-86
2022/03/02 00:58:41;;;;;;;38.75;18.02;;;;;;;;;;4164257;28;20061;-86
2022/03/02 01:00:42;;;;;;;34.15;17.73;;;;;;;;;;4163602;28;20119;-87
2022/03/02 01:02:43;;;;;;;34.40;17.65;;;;;;;;;;4146735;28;20049;-86
2022/03/02 01:04:44;;;;;;;39.38;18.20;;;;;;;;;;4162722;28;20045;-86
2022/03/02 01:06:45;;;;;;;35.17;17.13;;;;;;;;;;4171972;28;20131;-86
2022/03/02 01:08:47;;;;;;;37.22;17.73;;;;;;;;;;4162736;28;20550;-86
2022/03/02 01:10:48;;;;;;;41.13;16.90;;;;;;;;;;4162747;28;20049;-87
2022/03/02 01:12:50;;;;;;;33.53;17.33;;;;;;;;;;4162082;28;20060;-87
2022/03/02 01:14:51;;;;;;;39.22;17.85;;;;;;;;;;4162701;28;20099;-87
2022/03/02 01:16:52;;;;;;;32.30;16.30;;;;;;;;;;4163196;28;20511;-87
2022/03/02 01:18:53;;;;;;;36.92;18.00;;;;;;;;;;4163013;28;20049;-86
2022/03/02 01:20:55;;;;;;;34.35;16.67;;;;;;;;;;4163126;28;20515;-86
2022/03/02 01:22:56;;;;;;;40.88;19.00;;;;;;;;;;4174754;28;20123;-86
2022/03/02 01:24:58;;;;;;;38.10;17.65;;;;;;;;;;4179480;28;20051;-86
2022/03/02 01:27:01;;;;;;;40.28;18.85;;;;;;;;;;4179772;28;20157;-86
2022/03/02 01:29:04;;;;;;;34.85;17.13;;;;;;;;;;4180773;28;20411;-87
2022/03/02 01:31:05;;;;;;;38.53;18.50;;;;;;;;;;4180900;28;20533;-86
2022/03/02 01:33:06;;;;;;;39.38;18.85;;;;;;;;;;4179085;28;20136;-87
2022/03/02 01:35:11;;;;;;;35.38;18.02;;;;;;;;;;4163185;28;20082;-86
2022/03/02 01:37:12;;;;;;;37.90;17.40;;;;;;;;;;4178281;28;20120;-86
2022/03/02 01:39:13;;;;;;;34.58;18.23;;;;;;;;;;4179178;28;20055;-86
2022/03/02 01:41:18;;;;;;;38.10;19.25;;;;;;;;;;4180710;28;20382;-86
2022/03/02 01:43:19;;;;;;;37.75;17.42;;;;;;;;;;4179294;28;20040;-86
2022/03/02 01:45:21;;;;;;;41.10;18.08;;;;;;;;;;4180632;28;20060;-86
2022/03/02 01:47:27;;;;;;;35.60;17.08;;;;;;;;;;4180870;28;20053;-87
2022/03/02 01:49:28;;;;;;;34.30;17.17;;;;;;;;;;4179488;28;20049;-86
2022/03/02 01:51:29;;;;;;;36.53;16.40;;;;;;;;;;4179481;28;20110;-86
2022/03/02 01:53:30;;;;;;;37.53;18.30;;;;;;;;;;4181359;28;20055;-87
2022/03/02 01:55:32;;;;;;;39.15;17.73;;;;;;;;;;4182717;28;20045;-86
2022/03/02 01:57:33;;;;;;;38.05;18.85;;;;;;;;;;4182690;28;20491;-86
2022/03/02 01:59:34;;;;;;;36.88;17.92;;;;;;;;;;4183166;28;20439;-86
2022/03/02 02:01:35;;;;;;;42.90;18.38;;;;;;;;;;4166581;28;20049;-87
2022/03/02 02:03:36;;;;;;;35.83;17.67;;;;;;;;;;4182838;28;20573;-86
2022/03/02 02:05:37;;;;;;;35.17;17.95;;;;;;;;;;4182409;28;20175;-86
2022/03/02 02:07:39;;;;;;;39.70;18.83;;;;;;;;;;4183156;28;20053;-87
2022/03/02 02:09:40;;;;;;;39.03;17.25;;;;;;;;;;4182229;28;20449;-86
2022/03/02 02:11:41;;;;;;;41.78;18.67;;;;;;;;;;4182964;28;20056;-86
2022/03/02 02:13:42;;;;;;;34.95;16.92;;;;;;;;;;4183450;28;20094;-85
2022/03/02 02:15:44;;;;;;;34.90;18.00;;;;;;;;;;4182993;28;20045;-86
2022/03/02 02:17:45;;;;;;;38.35;18.35;;;;;;;;;;4182751;28;20076;-86
2022/03/02 02:19:47;;;;;;;41.17;18.05;;;;;;;;;;4183114;28;20487;-86
2022/03/02 02:21:49;;;;;;;39.20;18.75;;;;;;;;;;4182864;28;20045;-85
2022/03/02 02:23:50;;;;;;;37.33;18.08;;;;;;;;;;4184265;28;20046;-86
2022/03/02 02:25:52;;;;;;;41.55;18.83;;;;;;;;;;4181372;28;20053;-86
2022/03/02 02:27:53;;;;;;;39.08;17.60;;;;;;;;;;4183904;28;20543;-86
2022/03/02 02:29:55;;;;;;;43.75;19.25;;;;;;;;;;4182245;28;20505;-86
2022/03/02 02:31:56;;;;;;;38.00;17.30;;;;;;;;;;4182081;28;20107;-86
2022/03/02 02:33:57;;;;;;;39.15;18.48;;;;;;;;;;4183155;28;20092;-87
2022/03/02 02:35:59;;;;;;;45.20;20.63;;;;;;;;;;4181523;28;20044;-86
2022/03/02 02:38:00;;;;;;;40.08;18.20;;;;;;;;;;4181870;28;20118;-87
2022/03/02 02:40:03;;;;;;;40.55;19.42;;;;;;;;;;4183758;28;20044;-87
2022/03/02 02:42:08;;;;;;;41.40;17.23;;;;;;;;;;4180997;28;20053;-86
2022/03/02 02:44:10;;;;;;;41.28;19.08;;;;;;;;;;4182249;28;20049;-86
2022/03/02 02:46:12;;;;;;;41.28;18.20;;;;;;;;;;4182557;28;20052;-86
2022/03/02 02:48:14;;;;;;;42.17;19.67;;;;;;;;;;4182272;28;20496;-87
2022/03/02 02:50:19;;;;;;;41.85;19.50;;;;;;;;;;4184228;28;20053;-86
2022/03/02 02:52:21;;;;;;;41.28;18.45;;;;;;;;;;4182614;28;20139;-87
2022/03/02 02:54:22;;;;;;;42.55;20.15;;;;;;;;;;4182655;28;20064;-86
2022/03/02 02:56:23;;;;;;;46.78;19.88;;;;;;;;;;4182650;28;20044;-86
2022/03/02 02:58:24;;;;;;;46.75;20.65;;;;;;;;;;4181148;28;20071;-86
2022/03/02 03:00:27;;;;;;;41.47;19.95;;;;;;;;;;4181913;28;20518;-86
2022/03/02 03:02:29;;;;;;;45.03;21.63;;;;;;;;;;4182740;28;20090;-86
2022/03/02 03:04:31;;;;;;;41.70;18.83;;;;;;;;;;4181526;28;20490;-86
2022/03/02 03:06:33;;;;;;;48.85;20.25;;;;;;;;;;4182686;28;20041;-86
2022/03/02 03:08:34;;;;;;;50.22;22.88;;;;;;;;;;4182720;28;20053;-86
2022/03/02 03:10:35;;;;;;;48.13;20.63;;;;;;;;;;4166443;28;20049;-86
2022/03/02 03:12:36;;;;;;;50.63;19.25;;;;;;;;;;4183725;28;20093;-86
2022/03/02 03:14:38;;;;;;;42.55;19.35;;;;;;;;;;4181701;28;20051;-86
2022/03/02 03:16:42;;;;;;;45.05;21.33;;;;;;;;;;4182433;28;20069;-87
2022/03/02 03:18:45;;;;;;;46.03;20.75;;;;;;;;;;4182087;28;20055;-87
2022/03/02 03:20:46;;;;;;;41.85;19.08;;;;;;;;;;4182156;28;20052;-87
2022/03/02 03:22:47;;;;;;;47.72;19.33;;;;;;;;;;4182599;28;20048;-87
2022/03/02 03:24:49;;;;;;;45.60;18.73;;;;;;;;;;4182192;28;20056;-86
2022/03/02 03:26:51;;;;;;;39.72;17.35;;;;;;;;;;4183102;28;20049;-87
2022/03/02 03:28:52;;;;;;;44.30;18.90;;;;;;;;;;4182377;28;20095;-85
2022/03/02 03:30:53;;;;;;;46.78;20.35;;;;;;;;;;4183384;28;20037;-86
2022/03/02 03:32:56;;;;;;;46.83;19.70;;;;;;;;;;4180705;28;20048;-85
2022/03/02 03:34:59;;;;;;;45.40;19.80;;;;;;;;;;4182254;28;20053;-85
2022/03/02 03:37:00;;;;;;;45.17;20.45;;;;;;;;;;4184602;28;20128;-86
2022/03/02 03:39:01;;;;;;;40.92;18.52;;;;;;;;;;4181636;28;20041;-85
2022/03/02 03:41:02;;;;;;;42.50;18.60;;;;;;;;;;4165320;28;20091;-86
2022/03/02 03:43:04;;;;;;;42.53;18.60;;;;;;;;;;4182942;28;20085;-87
2022/03/02 03:45:07;;;;;;;41.65;19.10;;;;;;;;;;4181435;28;20044;-86
2022/03/02 03:47:09;;;;;;;42.10;18.27;;;;;;;;;;4183383;28;20445;-86
2022/03/02 03:49:10;;;;;;;41.05;18.25;;;;;;;;;;4180277;28;20084;-87
2022/03/02 03:51:12;;;;;;;45.17;20.63;;;;;;;;;;4181867;28;20473;-86
2022/03/02 03:53:13;;;;;;;45.60;19.23;;;;;;;;;;4181715;28;20535;-86
2022/03/02 03:55:14;;;;;;;46.53;21.63;;;;;;;;;;4181624;28;20048;-87
2022/03/02 03:57:15;;;;;;;51.22;23.85;;;;;;;;;;4182464;28;20052;-86
2022/03/02 03:59:16;;;;;;;50.17;21.17;;;10.40;73.90;;;;;;4184104;28;20438;-85
2022/03/02 04:01:17;;;;;;;50.08;21.20;;;3.20;99.90;;;;;;4167200;28;20049;-85
2022/03/02 04:03:20;;;;;;;43.50;20.00;;;3.60;99.90;;;;;;4183515;28;20514;-86
2022/03/02 04:05:20;;;;;;;45.10;19.65;;;2.50;99.90;;;;;;4182702;28;20053;-86
2022/03/02 04:07:21;;;;;;;48.67;20.65;;;3.20;99.90;;;;;;4181153;28;20041;-86
2022/03/02 04:09:23;;;;;;;47.92;20.45;;;2.40;99.90;;;;;;4182059;28;20056;-87
2022/03/02 04:11:23;;;;;;;47.92;20.70;;;2.40;99.90;;;;;;4182201;28;20041;-87
2022/03/02 04:13:24;;;;;;;53.22;22.77;;;2.40;99.90;;;;;;4181778;28;20098;-86
2022/03/02 04:15:26;;;;;;;45.15;20.88;;;2.50;99.90;;;;;;4181672;28;20041;-86
2022/03/02 04:17:26;;;;;;;43.17;19.70;;;2.40;99.90;;;;;;4181994;28;20123;-87
2022/03/02 04:19:27;;;;;;;49.47;20.27;;;2.40;99.90;;;;;;4181825;28;20494;-87
2022/03/02 04:21:28;;;;;;;45.88;19.30;;;2.40;99.90;;;;;;4181958;28;20049;-86
2022/03/02 04:23:29;;;;;;;38.63;18.40;;;2.40;99.90;;;;;;4180834;28;20044;-86
2022/03/02 04:25:30;;;;;;;46.30;19.35;;;2.40;99.90;;;;;;4181717;28;20056;-86
2022/03/02 04:27:32;;;;;;;41.58;19.50;;;2.30;99.90;;;;;;4182635;28;20051;-86
2022/03/02 04:29:32;;;;;;;41.95;19.80;;;2.30;99.90;;;;;;4182774;28;20044;-85
2022/03/02 04:31:33;;;;;;;40.15;19.55;;;2.50;99.90;;;;;;4181572;28;20510;-85
2022/03/02 04:33:35;;;;;;;39.20;17.75;;;2.30;99.90;;;;;;4182569;28;20159;-86
2022/03/02 04:35:36;;;;;;;45.88;18.88;;;2.30;99.90;;;;;;4164986;28;20053;-85
2022/03/02 04:37:38;;;;;;;38.53;17.48;;;2.30;99.90;;;;;;4182603;28;20045;-85
2022/03/02 04:39:40;;;;;;;41.55;17.67;;;2.20;99.90;;;;;;4180014;28;20067;-86
2022/03/02 04:41:41;;;;;;;40.97;19.20;;;2.20;99.90;;;;;;4182171;28;20051;-86
2022/03/02 04:43:43;;;;;;;42.35;19.00;;;3.00;99.90;;;;;;4182831;28;20084;-86
2022/03/02 04:45:44;;;;;;;40.40;18.30;;;2.20;99.90;;;;;;4182447;28;20045;-86
2022/03/02 04:47:44;;;;;;;41.03;18.52;;;2.20;99.90;;;;;;4182552;28;20043;-86
2022/03/02 04:49:45;;;;;;;44.50;17.42;;;2.10;99.90;;;;;;4180924;28;20041;-86
2022/03/02 04:51:48;;;;;;;40.67;19.92;;;2.10;99.90;;;;;;4181406;28;20422;-86
2022/03/02 04:53:50;;;;;;;44.13;18.98;;;2.10;99.90;;;;;;4182763;28;20045;-86
2022/03/02 04:55:53;;;;;;;40.33;18.67;;;3.50;99.90;;;;;;4180497;28;20542;-86
2022/03/02 04:57:56;;;;;;;39.15;17.55;;;2.00;99.90;;;;;;4181241;28;20122;-86
2022/03/02 04:59:57;;;;;;;37.35;16.63;;;2.00;99.90;;;;;;4182451;28;20095;-87
2022/03/02 05:01:58;;;;;;;34.70;16.85;;;2.80;99.90;;;;;;4182097;28;20053;-87
2022/03/02 05:03:59;;;;;;;39.75;17.40;;;1.90;99.90;;;;;;4181863;28;20116;-87
2022/03/02 05:06:00;;;;;;;38.35;18.55;;;2.60;99.90;;;;;;4182376;28;20041;-87
2022/03/02 05:08:01;;;;;;;37.58;17.65;;;;;;;;;;4182783;28;20047;-87
2022/03/02 05:10:02;;;;;;;41.35;19.30;;;;;;;;;;4182656;28;20041;-87
2022/03/02 05:12:04;;;;;;;38.92;18.40;;;;;;;;;;4180691;28;20088;-87
2022/03/02 05:14:05;;;;;;;34.88;16.55;;;;;;;;;;4181378;28;20076;-86
2022/03/02 05:16:06;;;;;;;36.03;17.30;;;;;;;;;;4181557;28;20052;-85
2022/03/02 05:18:08;;;;;;;39.63;17.13;;;;;;;;;;4181528;28;20075;-87
2022/03/02 05:20:10;;;;;;;37.83;17.95;;;;;;;;;;4164650;28;20084;-86
2022/03/02 05:22:11;;;;;;;39.63;18.08;;;;;;;;;;4180910;28;20045;-86
2022/03/02 05:24:12;;;;;;;37.60;17.08;;;;;;;;;;4181294;28;20132;-86
2022/03/02 05:26:15;;;;;;;38.45;16.73;;;;;;;;;;4180750;28;20521;-86
2022/03/02 05:28:16;;;;;;;42.10;18.15;;;;;;;;;;4179872;28;20036;-86
2022/03/02 05:30:19;;;;;;;35.42;16.90;;;;;;;;;;4182344;28;20045;-86
2022/03/02 05:32:20;;;;;;;37.88;17.67;;;;;;;;;;4164616;28;20053;-86
2022/03/02 05:34:22;;;;;;;38.47;18.02;;;;;;;;;;4181352;28;20084;-86
2022/03/02 05:36:25;;;;;;;45.50;17.58;;;;;;;;;;4181177;28;20095;-86
2022/03/02 05:38:26;;;;;;;41.33;17.65;;;;;;;;;;4172835;28;20053;-86
2022/03/02 05:40:27;;;;;;;39.65;18.20;;;;;;;;;;4148795;28;20046;-86
2022/03/02 05:42:29;;;;;;;42.15;19.13;;;;;;;;;;4165992;28;20049;-87
2022/03/02 05:44:30;;;;;;;38.00;17.83;;;;;;;;;;4174381;28;20080;-86
2022/03/02 05:46:31;;;;;;;38.05;17.67;;;;;;;;;;4180572;28;20045;-86
2022/03/02 05:48:34;;;;;;;36.83;17.38;;;;;;;;;;4164617;28;20057;-86
2022/03/02 05:50:36;;;;;;;37.83;17.83;;;;;;;;;;4164289;28;20053;-86
2022/03/02 05:52:37;;;;;;;39.70;17.70;;;;;;;;;;4181613;28;20040;-87
2022/03/02 05:54:39;;;;;;;39.70;17.90;;;;;;;;;;4181369;28;20492;-86
2022/03/02 05:56:41;;;;;;;37.10;17.38;;;;;;;;;;4180646;28;20044;-86
2022/03/02 05:58:43;;;;;;;36.40;18.33;;;;;;;;;;4181170;28;20454;-86
2022/03/02 06:00:45;;;;;;;39.33;17.40;;;;;;;;;;4180463;28;20437;-86
2022/03/02 06:02:46;;;;;;;37.88;17.38;;;;;;;;;;4181470;28;20380;-86
2022/03/02 06:04:48;;;;;;;37.13;18.42;;;;;;;;;;4181578;28;20045;-87
2022/03/02 06:06:49;;;;;;;39.45;16.80;;;;;;;;;;4164943;28;20057;-86
2022/03/02 06:08:51;;;;;;;43.65;17.85;;;;;;;;;;4181051;28;20044;-86
2022/03/02 06:10:52;;;;;;;44.90;19.13;;;;;;;;;;4182884;28;20045;-86
2022/03/02 06:12:53;;;;;;;38.15;16.10;;;;;;;;;;4182871;28;20412;-85
2022/03/02 06:14:54;;;;;;;40.97;18.73;;;;;;;;;;4164613;28;20045;-86
2022/03/02 06:16:56;;;;;;;36.53;16.13;;;;;;;;;;4182325;28;20072;-86
2022/03/02 06:18:57;;;;;;;36.88;17.70;;;;;;;;;;4180820;28;20041;-86
2022/03/02 06:21:00;;;;;;;42.53;16.95;;;;;;;;;;4181703;28;20048;-86
2022/03/02 06:23:02;;;;;;;41.90;17.58;;;;;;;;;;4165065;28;20050;-86
2022/03/02 06:25:04;;;;;;;34.17;16.90;;;;;;;;;;4182703;28;20064;-86
2022/03/02 06:27:06;;;;;;;36.33;16.60;;;;;;;;;;4182655;28;20049;-86
2022/03/02 06:29:11;;;;;;;40.72;17.67;;;;;;;;;;4181915;28;20045;-86
2022/03/02 06:31:14;;;;;;;40.88;18.67;;;;;;;;;;4181628;28;20124;-86
2022/03/02 06:33:19;;;;;;;39.95;17.00;;;;;;;;;;4164813;28;20410;-86
2022/03/02 06:35:22;;;;;;;40.30;17.70;;;;;;;;;;4163747;28;20492;-86
2022/03/02 06:37:24;;;;;;;38.60;18.00;;;;;;;;;;4182912;28;20052;-86
2022/03/02 06:39:26;;;;;;;38.25;17.48;;;;;;;;;;4167047;28;20049;-86
2022/03/02 06:41:47;;;;;;;48.03;19.00;;;;;;;;;;4184568;28;20406;-86
2022/03/02 06:44:04;;;;;;;40.28;17.83;;;;;;;;;;4186385;28;20056;-86
2022/03/02 06:46:11;;;;;;;40.33;18.08;;;;;;;;;;4186463;28;20044;-86
2022/03/02 06:48:33;;;;;;;39.67;17.60;;;;;;;;;;4184564;28;20041;-86
2022/03/02 06:50:37;;;;;;;39.22;17.58;;;;;;;;;;4185077;28;20056;-87
2022/03/02 06:52:38;;;;;;;41.63;18.42;;;;;;;;;;4184652;28;20049;-86
2022/03/02 06:54:42;;;;;;;44.78;18.30;;;;;;;;;;4186833;28;20499;-86
2022/03/02 06:56:50;;;;;;;38.65;18.77;;;;;;;;;;4168336;28;20099;-86
2022/03/02 06:58:52;;;;;;;42.35;17.67;;;;;;;;;;4168112;28;20551;-86
2022/03/02 07:00:57;;;;;;;39.97;18.35;;;;;;;;;;4167901;28;20049;-86
2022/03/02 07:03:11;;;;;;;40.58;17.98;;;;;;;;;;4184164;28;20510;-86
2022/03/02 07:05:12;;;;;;;39.88;18.15;;;;;;;;;;4166830;28;20183;-87
2022/03/02 07:07:19;;;;;;;44.33;19.27;;;;;;;;;;4167502;28;20042;-86
2022/03/02 07:09:22;;;;;;;41.25;18.30;;;;;;;;;;4183763;28;20049;-86
2022/03/02 07:11:25;;;;;;;40.05;19.13;;;;;;;;;;4183117;28;20084;-85
2022/03/02 07:13:27;;;;;;;40.25;18.98;;;;;;;;;;4184428;28;20053;-85
2022/03/02 07:15:29;;;;;;;38.97;18.60;;;;;;;;;;4166131;28;20053;-86
2022/03/02 07:17:33;;;;;;;41.50;17.65;;;;;;;;;;4183514;28;20052;-88
2022/03/02 07:19:35;;;;;;;35.78;16.77;;;;;;;;;;4182095;28;20096;-88
2022/03/02 07:21:38;;;;;;;36.47;17.88;;;;;;;;;;4165109;28;20072;-88
2022/03/02 07:23:54;;;;;;;39.60;19.13;;;;;;;;;;4181880;28;20060;-87
2022/03/02 07:25:58;;;;;;;41.88;19.30;;;;;;;;;;4181367;28;20060;-87
2022/03/02 07:28:01;;;;;;;38.17;16.85;;;;;;;;;;4181317;28;20056;-87
2022/03/02 07:30:02;;;;;;;37.00;17.30;;;;;;;;;;4181141;28;20055;-87
2022/03/02 07:32:04;;;;;;;37.22;17.38;;;;;;;;;;4180708;28;20049;-87
2022/03/02 07:34:06;;;;;;;38.85;17.85;;;;;;;;;;4181907;28;20083;-87
2022/03/02 07:36:08;;;;;;;39.97;18.58;;;;;;;;;;4180647;28;20082;-87
2022/03/02 07:38:09;;;;;;;39.72;18.90;;;;;;;;;;4181532;28;20067;-87
2022/03/02 07:40:10;;;;;;;37.00;17.23;;;;;;;;;;4164017;28;20075;-88
2022/03/02 07:42:11;;;;;;;38.50;17.88;;;;;;;;;;4181241;28;20419;-87
2022/03/02 07:44:13;;;;;;;38.22;17.48;;;;;;;;;;4182728;28;20041;-87
2022/03/02 07:46:14;;;;;;;35.33;17.23;;;;;;;;;;4180619;28;20130;-88
2022/03/02 07:48:15;;;;;;;38.67;17.75;;;;;;;;;;4180715;28;20056;-87
2022/03/02 07:50:16;;;;;;;38.85;17.83;;;;;;;;;;4180873;28;20060;-86
2022/03/02 07:52:18;;;;;;;36.95;17.67;;;;;;;;;;4180553;28;20099;-87
2022/03/02 07:54:21;;;;;;;42.20;19.38;;;;;;;;;;4181280;28;20055;-87
2022/03/02 07:56:23;;;;;;;38.38;19.23;;;;;;;;;;4181017;28;20103;-87
2022/03/02 07:58:25;;;;;;;39.28;17.77;;;;;;;;;;4181655;28;20045;-87
2022/03/02 08:00:28;;;;;;;40.92;20.00;;;;;;;;;;4180650;28;20059;-88
2022/03/02 08:02:31;;;;;;;41.25;18.98;;;;;;;;;;4164141;28;20092;-87
2022/03/02 08:04:32;;;;;;;40.85;18.85;;;;;;;;;;4179927;28;20135;-87
2022/03/02 08:06:37;;;;;;;35.53;17.85;;;;;;;;;;4163697;28;20065;-87
2022/03/02 08:08:40;;;;;;;35.42;18.95;;;;;;;;;;4180380;28;20049;-87
2022/03/02 08:10:42;;;;;;;40.03;19.42;;;;;;;;;;4180228;28;20530;-87
2022/03/02 08:12:44;;;;;;;38.67;19.35;;;;;;;;;;4179238;28;20056;-87
2022/03/02 08:14:45;;;;;;;36.80;18.15;;;;;;;;;;4181371;28;20041;-88
2022/03/02 08:16:47;;;;;;;35.72;17.60;;;;;;;;;;4180963;28;20494;-87
2022/03/02 08:18:48;;;;;;;39.45;20.27;;;;;;;;;;4181044;28;20044;-87
2022/03/02 08:20:50;;;;;;;42.90;20.35;;;;;;;;;;4178348;28;20131;-87
2022/03/02 08:22:55;;;;;;;37.28;19.40;;;;;;;;;;4176266;28;20136;-87
2022/03/02 08:25:00;;;;;;;36.28;18.23;;;;;;;;;;4163271;28;20488;-89
2022/03/02 08:27:02;;;;;;;36.25;20.05;;;;;;;;;;4173048;28;20045;-88
2022/03/02 08:29:05;;;;;;;34.45;18.50;;;;;;;;;;4180104;28;20049;-87
2022/03/02 08:31:06;;;;;;;38.65;18.63;;;;;;;;;;4163721;28;20525;-88
2022/03/02 08:33:12;;;;;;;35.05;18.40;;;;;;;;;;4178674;28;20052;-87
2022/03/02 08:35:15;;;;;;;35.55;19.20;;;;;;;;;;4182067;28;20087;-88
2022/03/02 08:37:19;;;;;;;40.83;19.25;;;;;;;;;;4180453;28;20135;-89
2022/03/02 08:39:22;;;;;;;37.15;18.92;;;;;;;;;;4172893;28;20046;-87
2022/03/02 08:41:23;;;;;;;36.67;18.48;;;;;;;;;;4167015;28;20080;-88
2022/03/02 08:43:24;;;;;;;33.25;17.33;;;;;;;;;;4180857;28;20175;-88
2022/03/02 08:45:26;;;;;;;39.90;19.30;;;;;;;;;;4182844;28;20049;-88
2022/03/02 08:47:28;;;;;;;36.22;18.77;;;;;;;;;;4183046;28;20060;-90
2022/03/02 08:49:29;;;;;;;32.85;18.17;;;;;;;;;;4163325;28;20175;-88
2022/03/02 08:51:30;;;;;;;32.55;17.38;;;;;;;;;;4181451;28;20126;-88
2022/03/02 08:53:32;;;;;;;36.40;18.48;;;;;;;;;;4182250;28;20041;-87
2022/03/02 08:55:33;;;;;;;35.15;18.95;;;;;;;;;;4180990;28;20036;-88
2022/03/02 08:57:35;;;;;;;31.55;17.35;;;;;;;;;;4181568;28;20472;-88
2022/03/02 08:59:37;;;;;;;33.33;19.10;;;;;;;;;;4179874;28;20067;-87
2022/03/02 09:01:40;;;;;;;35.67;19.60;;;;;;;;;;4179047;28;20072;-87
2022/03/02 09:03:46;;;;;;;33.40;17.52;;;;;;;;;;4179840;28;20051;-88
2022/03/02 09:05:49;;;;;;;32.35;18.13;;;;;;;;;;4180487;28;20438;-87
2022/03/02 09:07:50;;;;;;;36.35;19.17;;;;;;;;;;4180809;28;20040;-87
2022/03/02 09:09:51;;;;;;;33.85;18.35;;;;;;;;;;4179461;28;20041;-87
2022/03/02 09:11:55;;;;;;;33.08;17.52;;;;;;;;;;4178982;28;20464;-87
2022/03/02 09:13:56;;;;;;;30.75;17.55;;;;;;;;;;4169246;28;20127;-88
2022/03/02 09:15:57;;;;;;;32.58;17.35;;;;;;;;;;4169189;28;20048;-87
2022/03/02 09:18:00;;;;;;;34.03;18.30;;;;;;;;;;4169165;28;20060;-88
2022/03/02 09:20:01;;;;;;;30.20;16.23;;;;;;;;;;4169910;28;20522;-88
2022/03/02 09:22:03;;;;;;;32.13;16.58;;;;;;;;;;4170807;28;20047;-88
2022/03/02 09:24:05;;;;;;;32.25;17.27;;;;;;;;;;4181440;28;20041;-88
2022/03/02 09:26:07;;;;;;;30.13;16.88;;;;;;;;;;4170229;28;20106;-89
2022/03/02 09:28:10;;;;;;;33.30;17.05;;;;;;;;;;4170197;28;20041;-88
2022/03/02 09:30:12;;;;;;;32.88;17.67;;;;;;;;;;4179807;28;20036;-88
2022/03/02 09:32:13;;;;;;;28.67;16.27;;;;;;;;;;4180144;28;20184;-88
2022/03/02 09:34:15;;;;;;;35.63;18.98;;;;;;;;;;4180048;28;20126;-88
2022/03/02 09:36:20;;;;;;;32.17;16.92;;;;;;;;;;4180201;28;20091;-88
2022/03/02 09:38:22;;;;;;;31.58;16.52;;;;;;;;;;4163698;28;20128;-88
2022/03/02 09:40:29;;;;;;;30.23;16.80;;;;;;;;;;4181331;28;20048;-87
2022/03/02 09:42:30;;;;;;;29.48;16.75;;;;;;;;;;4180372;28;20123;-88
2022/03/02 09:44:41;;;;;;;30.27;17.17;;;;;;;;;;4180955;28;20080;-89
2022/03/02 09:46:48;;;;;;;33.53;18.10;;;;;;;;;;4180256;28;20052;-88
2022/03/02 09:48:50;;;;;;;33.97;17.80;;;;;;;;;;4180925;28;20487;-88
2022/03/02 09:50:52;;;;;;;28.63;16.58;;;;;;;;;;4179780;28;20126;-88
2022/03/02 09:52:54;;;;;;;30.52;16.38;;;;;;;;;;4179595;28;20045;-88
2022/03/02 09:54:57;;;;;;;29.20;15.63;;;;;;;;;;4180413;28;20045;-87
2022/03/02 09:57:00;;;;;;;28.67;16.25;;;;;;;;;;4180478;28;20056;-88
2022/03/02 09:59:02;;;;;;;28.48;16.55;;;;;;;;;;4180625;28;20045;-89
2022/03/02 10:01:08;;;;;;;33.53;16.17;;;;;;;;;;4180452;28;20041;-89
2022/03/02 10:03:10;;;;;;;31.77;17.15;;;;;;;;;;4181153;28;20041;-89
2022/03/02 10:05:16;;;;;;;29.80;16.90;;;;;;;;;;4181069;28;20037;-87
2022/03/02 10:07:27;;;;;;;29.10;15.95;;;;;;;;;;4181587;28;20076;-86
2022/03/02 10:09:28;;;;;;;28.95;16.08;;;;;;;;;;4180173;28;20131;-87
2022/03/02 10:11:30;;;;;;;29.13;15.50;;;;;;;;;;4179864;28;20053;-88
2022/03/02 10:13:31;;;;;;;30.85;16.30;;;;;;;;;;4182599;28;20044;-87
2022/03/02 10:15:33;;;;;;;31.65;16.75;;;;;;;;;;4184359;28;20044;-88
2022/03/02 10:17:36;;;;;;;32.63;16.17;;;;;;;;;;4184030;28;20060;-87
2022/03/02 10:19:43;;;;;;;27.40;14.73;;;;;;;;;;4184184;28;20048;-87
2022/03/02 10:21:51;;;;;;;29.75;17.42;;;;;;;;;;4188501;28;20574;-88
2022/03/02 10:23:55;;;;;;;28.10;16.00;;;;;;;;;;4186942;28;20044;-87
2022/03/02 10:26:08;;;;;;;30.15;15.93;;;;;;;;;;4187495;28;20049;-86
2022/03/02 10:28:11;;;;;;;28.95;15.73;;;;;;;;;;4167771;28;20051;-87
2022/03/02 10:30:12;;;;;;;27.63;15.70;;;;;;;;;;4166654;28;20084;-87
2022/03/02 10:32:17;;;;;;;30.20;15.63;;;;;;;;;;4181955;28;20045;-87
2022/03/02 10:34:18;;;;;;;28.30;15.93;;;;;;;;;;4178002;28;20049;-86
2022/03/02 10:36:20;;;;;;;29.42;16.17;;;;;;;;;;4184176;28;20059;-87
2022/03/02 10:38:28;;;;;;;28.92;16.00;;;;;;;;;;4182368;28;20037;-87
2022/03/02 10:40:32;;;;;;;29.80;15.95;;;;;;;;;;4183256;28;20053;-86
2022/03/02 10:42:35;;;;;;;24.73;14.00;;;;;;;;;;4182880;28;20098;-87
2022/03/02 10:44:43;;;;;;;27.27;14.93;;;;;;;;;;4183212;28;20060;-86
2022/03/02 10:46:47;;;;;;;28.42;16.27;;;;;;;;;;4182395;28;20045;-86
2022/03/02 10:49:01;;;;;;;26.85;16.70;;;;;;;;;;4183905;28;20041;-87
2022/03/02 10:51:02;;;;;;;27.65;15.50;;;;;;;;;;4180884;28;20044;-87
2022/03/02 10:53:05;;;;;;;27.88;15.00;;;;;;;;;;4182223;28;20146;-86
2022/03/02 10:55:11;;;;;;;30.38;16.25;;;;;;;;;;4180624;28;20124;-87
2022/03/02 10:57:13;;;;;;;25.60;15.98;;;;;;;;;;4182089;28;20036;-86
2022/03/02 10:59:16;;;;;;;27.70;14.80;;;;;;;;;;4182270;28;20392;-87
2022/03/02 11:01:18;;;;;;;28.23;15.38;;;;;;;;;;4181916;28;20523;-87
2022/03/02 11:03:20;;;;;;;25.67;15.10;;;;;;;;;;4183922;28;20215;-87
2022/03/02 11:05:21;;;;;;;25.98;14.52;;;;;;;;;;4177607;28;20554;-87
2022/03/02 11:07:23;;;;;;;28.05;14.63;;;;;;;;;;4182331;28;20033;-87
2022/03/02 11:09:25;;;;;;;27.25;14.10;;;;;;;;;;4182670;28;20048;-87
2022/03/02 11:11:26;;;;;;;25.02;14.63;;;;;;;;;;4183515;28;20037;-86
2022/03/02 11:13:28;;;;;;;27.95;14.23;;;;;;;;;;4182618;28;20065;-87
2022/03/02 11:15:43;;;;;;;28.50;14.93;;;;;;;;;;4181195;28;20457;-86
2022/03/02 11:18:16;;;;;;;26.13;13.88;;;;;;;;;;4182663;28;20067;-86
2022/03/02 11:20:17;;;;;;;23.55;14.45;;;;;;;;;;4176241;28;20049;-86
2022/03/02 11:22:20;;;;;;;31.00;16.00;;;;;;;;;;4183716;28;20547;-86
2022/03/02 11:24:21;;;;;;;23.92;13.73;;;;;;;;;;4183724;28;20530;-86
2022/03/02 11:26:24;;;;;;;25.08;14.73;;;;;;;;;;4180749;28;20045;-88
2022/03/02 11:28:25;;;;;;;24.00;14.38;;;;;;;;;;4185639;28;20052;-88
2022/03/02 11:30:26;;;;;;;23.45;13.65;;;;;;;;;;4183113;28;20080;-86
2022/03/02 11:32:28;;;;;;;22.55;13.60;;;;;;;;;;4181923;28;20438;-87
2022/03/02 11:34:30;;;;;;;24.15;12.98;;;;;;;;;;4182759;28;20455;-87
2022/03/02 11:36:35;;;;;;;22.67;13.70;;;;;;;;;;4181844;28;20056;-87
2022/03/02 11:38:39;;;;;;;27.45;14.95;;;;;;;;;;4183078;28;20304;-87
2022/03/02 11:40:44;;;;;;;24.50;14.02;;;;;;;;;;4182506;28;20052;-87
2022/03/02 11:42:45;;;;;;;22.88;13.10;;;;;;;;;;4182216;28;20045;-87
2022/03/02 11:44:47;;;;;;;23.10;13.18;;;;;;;;;;4183251;28;20057;-87